X  Bezár Dades meteorològiques de l'aviació METAR     LHBP Budapest Liszt Ferenc International Airport
Hőmérséklet
16°C Hőmérséklet
5°C Harmatpont
48% Páratartalom



Szél
10 KM/H
6 MPH
3 M/S
5 NUS



290°
NyÉNy
Jelenlegi állapot

Közepesen felhős Közepesen felhős
Légnyomás 1010.84 (hPa) - 29.85 (inHg)
Visibilitat 6 (mérföld) - 9.7 (km)
Repülőtér
Codi aeroport LHBP

Ubicació: Budapest Liszt Ferenc International Airport
Távolság: 14 (km)

Metar:
LHBP 051230Z 29005KT 200V340 9999 FEW042 16/05 Q1011 NOSIG

Idő: 2024-03-05 13:30 CET